Time;durP1;ratioP1;P1;durP2;ratioP2;P2;SDS_P1;SDS_P2;PMS_P1;PMS_P2;Temp;Humidity;BMP_temperature;BMP_pressure;BME280_temperature;BME280_humidity;BME280_pressure;Samples;Min_cycle;Max_cycle;Signal;HPM_P1;HPM_P2
2022/11/25 00:01:17;;;;;;;17.40;2.85;;;10.20;99.90;;;;;;5009106;28;20026;-64
2022/11/25 00:03:45;;;;;;;11.45;2.33;;;10.20;99.90;;;;;;5012344;28;20071;-64
2022/11/25 00:06:22;;;;;;;16.17;1.98;;;10.10;99.90;;;;;;5009683;28;20049;-64
2022/11/25 00:08:50;;;;;;;11.65;3.28;;;10.10;99.90;;;;;;5009223;28;20030;-64
2022/11/25 00:11:17;;;;;;;21.45;3.03;;;10.00;99.90;;;;;;5019589;28;21011;-64
2022/11/25 00:13:44;;;;;;;19.05;2.53;;;10.00;99.90;;;;;;5011474;28;20029;-62
2022/11/25 00:16:14;;;;;;;17.30;2.80;;;10.00;99.90;;;;;;5000288;28;20030;-63
2022/11/25 00:18:42;;;;;;;20.83;2.95;;;10.00;99.90;;;;;;5010355;28;20425;-63
2022/11/25 00:21:10;;;;;;;18.45;2.80;;;10.00;99.90;;;;;;5004654;28;20030;-63
2022/11/25 00:23:37;;;;;;;12.05;1.92;;;10.10;99.90;;;;;;5021824;28;20462;-63
2022/11/25 00:26:14;;;;;;;16.05;2.83;;;10.10;99.90;;;;;;5009974;28;20033;-64
2022/11/25 00:28:42;;;;;;;16.60;2.42;;;10.20;99.90;;;;;;5021056;28;20036;-62
2022/11/25 00:31:08;;;;;;;18.65;2.15;;;10.20;99.90;;;;;;5015246;28;20478;-63
2022/11/25 00:33:35;;;;;;;14.35;1.98;;;10.20;99.90;;;;;;5026962;28;20036;-64
2022/11/25 00:36:02;;;;;;;19.98;2.45;;;10.20;99.90;;;;;;5014222;28;20037;-63
2022/11/25 00:38:28;;;;;;;15.95;3.50;;;10.20;99.90;;;;;;5017904;28;20045;-63
2022/11/25 00:46:22;;;;;;;12.77;3.03;;;10.00;99.90;;;;;;5011529;28;20097;-63
2022/11/25 00:48:48;;;;;;;17.38;2.90;;;10.10;99.90;;;;;;5015568;28;20030;-63
2022/11/25 00:51:14;;;;;;;13.05;2.40;;;10.30;99.90;;;;;;5017306;28;20022;-64
2022/11/25 00:53:39;;;;;;;14.73;2.67;;;10.40;99.90;;;;;;5023325;28;20030;-63
2022/11/25 00:56:14;;;;;;;18.27;2.22;;;10.40;99.90;;;;;;5008070;28;20037;-64
2022/11/25 00:58:41;;;;;;;19.92;1.80;;;10.30;99.90;;;;;;5011095;28;20030;-64
2022/11/25 01:01:07;;;;;;;20.60;3.13;;;10.20;99.90;;;;;;5012653;28;20084;-64
2022/11/25 01:03:36;;;;;;;15.32;2.05;;;10.20;99.90;;;;;;5020462;28;20040;-63
2022/11/25 01:06:07;;;;;;;18.23;3.20;;;10.20;99.90;;;;;;5013178;28;20040;-64
2022/11/25 01:08:34;;;;;;;14.88;1.77;;;10.30;99.90;;;;;;5021955;28;20464;-64
2022/11/25 01:11:00;;;;;;;20.25;3.72;;;10.20;99.90;;;;;;5011568;28;20032;-65
2022/11/25 01:13:27;;;;;;;20.75;3.80;;;10.10;99.90;;;;;;5017643;28;20028;-64
2022/11/25 01:15:53;;;;;;;18.30;3.17;;;10.10;99.90;;;;;;5015259;28;20030;-64
2022/11/25 01:18:18;;;;;;;14.05;2.35;;;10.10;99.90;;;;;;5011196;28;20038;-63
2022/11/25 01:20:44;;;;;;;13.38;2.08;;;10.00;99.90;;;;;;5013521;28;20022;-64
2022/11/25 01:23:10;;;;;;;18.77;3.25;;;10.10;99.90;;;;;;5012934;28;20377;-64
2022/11/25 01:25:37;;;;;;;14.48;2.60;;;10.00;99.90;;;;;;5008220;28;20084;-64
2022/11/25 01:28:03;;;;;;;18.20;1.80;;;10.00;99.90;;;;;;5012492;28;20030;-63
2022/11/25 01:30:29;;;;;;;14.80;3.17;;;9.90;99.90;;;;;;5005809;28;20112;-64
2022/11/25 01:32:55;;;;;;;13.40;2.40;;;9.90;99.90;;;;;;5017490;28;20026;-64
2022/11/25 01:35:21;;;;;;;18.13;3.20;;;10.00;99.90;;;;;;5015906;28;20104;-64
2022/11/25 01:37:46;;;;;;;15.35;2.30;;;10.00;99.90;;;;;;5018950;28;20021;-64
2022/11/25 01:40:12;;;;;;;17.63;3.03;;;10.00;99.90;;;;;;5014774;28;20041;-64
2022/11/25 01:42:43;;;;;;;11.68;2.60;;;10.00;99.90;;;;;;5014570;28;20394;-64
2022/11/25 01:45:31;;;;;;;16.13;3.05;;;9.90;99.90;;;;;;5010248;28;20026;-64
2022/11/25 01:48:04;;;;;;;21.88;2.78;;;9.90;99.90;;;;;;5012689;28;20478;-63
2022/11/25 01:50:32;;;;;;;14.18;2.85;;;10.00;99.90;;;;;;5017693;28;20029;-63
2022/11/25 01:52:59;;;;;;;17.40;2.50;;;10.10;99.90;;;;;;5010822;28;20014;-63
2022/11/25 01:55:32;;;;;;;20.23;2.58;;;10.20;99.90;;;;;;5013378;28;20083;-64
2022/11/25 01:58:13;;;;;;;15.57;2.80;;;10.30;99.90;;;;;;5010711;28;20018;-62
2022/11/25 02:00:39;;;;;;;19.90;2.28;;;10.20;99.90;;;;;;5012530;28;20030;-63
2022/11/25 02:03:06;;;;;;;17.92;3.45;;;10.40;99.90;;;;;;5016071;28;20025;-63
2022/11/25 02:05:37;;;;;;;14.32;2.95;;;10.30;99.90;;;;;;5010728;28;20049;-64
2022/11/25 02:08:06;;;;;;;15.60;2.78;;;10.30;99.90;;;;;;5014572;28;20030;-63
2022/11/25 02:10:33;;;;;;;16.98;3.28;;;10.20;99.90;;;;;;5016527;28;20084;-64
2022/11/25 02:12:59;;;;;;;16.98;3.03;;;10.30;99.90;;;;;;5010183;28;20034;-63
2022/11/25 02:15:27;;;;;;;21.05;2.63;;;10.40;99.90;;;;;;5007267;28;20033;-64
2022/11/25 02:17:53;;;;;;;20.77;3.78;;;10.30;99.90;;;;;;5013291;28;20049;-63
2022/11/25 02:20:21;;;;;;;24.80;3.30;;;10.30;99.90;;;;;;5015177;28;20064;-64
2022/11/25 02:23:08;;;;;;;11.98;2.17;;;10.40;99.90;;;;;;5010865;28;20025;-64
2022/11/25 02:25:36;;;;;;;17.08;2.75;;;10.40;99.90;;;;;;5003302;28;20042;-64
2022/11/25 02:28:12;;;;;;;18.58;3.78;;;10.60;99.90;;;;;;5008278;28;20088;-63
2022/11/25 02:30:38;;;;;;;18.63;2.88;;;10.80;99.90;;;;;;5011653;28;20029;-63
2022/11/25 02:33:05;;;;;;;17.60;2.78;;;10.80;99.90;;;;;;5012470;28;20099;-64
2022/11/25 02:35:37;;;;;;;15.95;2.80;;;10.80;99.90;;;;;;5011158;28;20053;-64
2022/11/25 02:38:12;;;;;;;14.35;2.08;;;10.70;99.90;;;;;;5015502;28;20037;-64
2022/11/25 02:41:01;;;;;;;17.45;2.75;;;10.70;99.90;;;;;;5011925;28;20034;-65
2022/11/25 02:43:27;;;;;;;11.27;2.20;;;10.50;99.90;;;;;;5014435;28;20457;-63
2022/11/25 02:46:05;;;;;;;18.23;3.67;;;10.30;99.90;;;;;;5017880;28;20046;-63
2022/11/25 02:48:34;;;;;;;10.75;2.20;;;10.30;99.90;;;;;;5010269;28;20482;-64
2022/11/25 02:51:00;;;;;;;21.17;2.95;;;10.10;99.90;;;;;;5008400;28;20029;-64
2022/11/25 02:53:26;;;;;;;20.23;2.67;;;10.20;99.90;;;;;;5013703;28;20108;-63
2022/11/25 02:55:52;;;;;;;22.13;2.20;;;10.20;99.90;;;;;;5011156;28;20030;-63
2022/11/25 02:58:18;;;;;;;20.90;4.15;;;10.20;99.90;;;;;;5010022;28;20072;-64
2022/11/25 03:00:44;;;;;;;26.25;3.92;;;10.10;99.90;;;;;;5015866;28;20485;-63
2022/11/25 03:03:11;;;;;;;21.77;3.03;;;10.10;99.90;;;;;;5008384;28;20032;-64
2022/11/25 03:05:37;;;;;;;27.92;3.35;;;10.10;99.90;;;;;;5010521;28;20038;-63
2022/11/25 03:08:03;;;;;;;17.48;2.88;;;10.10;99.90;;;;;;5018105;28;20453;-63
2022/11/25 03:10:29;;;;;;;23.85;3.25;;;10.10;99.90;;;;;;5011777;28;20026;-64
2022/11/25 03:12:55;;;;;;;16.17;2.97;;;10.10;99.90;;;;;;5009813;28;20029;-63
2022/11/25 03:15:21;;;;;;;21.02;3.05;;;10.00;99.90;;;;;;5009699;28;20041;-64
2022/11/25 03:17:47;;;;;;;19.25;2.70;;;10.00;99.90;;;;;;5009599;28;20018;-64
2022/11/25 03:20:14;;;;;;;19.73;2.53;;;10.00;99.90;;;;;;5012137;28;20405;-63
2022/11/25 03:22:40;;;;;;;22.17;3.20;;;10.10;99.90;;;;;;5018218;28;20104;-64
2022/11/25 03:25:07;;;;;;;14.35;3.22;;;10.10;99.90;;;;;;5011735;28;20038;-63
2022/11/25 03:27:34;;;;;;;11.73;2.58;;;10.00;99.90;;;;;;5012593;28;20018;-64
2022/11/25 03:30:00;;;;;;;19.13;2.28;;;9.90;99.90;;;;;;5011340;28;20024;-64
2022/11/25 03:32:26;;;;;;;12.95;2.55;;;9.80;99.90;;;;;;5018287;28;20026;-64
2022/11/25 03:34:52;;;;;;;14.95;2.50;;;9.70;99.90;;;;;;5011242;28;20084;-64
2022/11/25 03:37:18;;;;;;;13.60;2.65;;;9.70;99.90;;;;;;5007316;28;20029;-64
2022/11/25 03:39:45;;;;;;;17.95;3.45;;;9.60;99.90;;;;;;5016696;28;20036;-64
2022/11/25 03:42:11;;;;;;;13.38;3.38;;;9.50;99.90;;;;;;5017057;28;20065;-64
2022/11/25 03:44:37;;;;;;;12.45;2.10;;;9.40;99.90;;;;;;5009296;28;20030;-64
2022/11/25 03:47:03;;;;;;;14.30;2.17;;;9.40;99.90;;;;;;5009898;28;20044;-64
2022/11/25 03:49:29;;;;;;;16.30;2.08;;;9.40;99.90;;;;;;5009218;28;20030;-64
2022/11/25 03:51:56;;;;;;;12.52;2.25;;;9.40;99.90;;;;;;5012093;28;20037;-63
2022/11/25 03:54:22;;;;;;;10.48;2.10;;;9.40;99.90;;;;;;5015607;28;20137;-63
2022/11/25 03:56:49;;;;;;;15.50;1.73;;;9.40;99.90;;;;;;5010632;28;20481;-63
2022/11/25 03:59:15;;;;;;;13.43;2.33;;;9.40;99.90;;;;;;5007745;28;20409;-63
2022/11/25 04:01:41;;;;;;;11.43;1.75;;;9.40;99.90;;;;;;5017087;28;20021;-64
2022/11/25 04:04:07;;;;;;;21.15;2.35;;;9.40;99.90;;;;;;5009902;28;20045;-63
2022/11/25 04:06:33;;;;;;;18.42;2.53;;;9.30;99.90;;;;;;5012472;28;20068;-63
2022/11/25 04:09:00;;;;;;;16.50;2.00;;;9.40;99.90;;;;;;5018474;28;20030;-65
2022/11/25 04:12:45;;;;;;;14.95;2.97;;;9.50;99.90;;;;;;5015276;28;20116;-63
2022/11/25 04:14:11;;;;;;;17.35;2.83;;;9.50;99.90;;;;;;5008641;28;20141;-64
2022/11/25 04:16:37;;;;;;;18.35;2.28;;;9.30;99.90;;;;;;5017575;28;20104;-63
2022/11/25 04:19:03;;;;;;;15.88;2.50;;;9.20;99.90;;;;;;5010921;28;20045;-63
2022/11/25 04:21:29;;;;;;;18.67;3.65;;;9.10;99.90;;;;;;5009151;28;20037;-64
2022/11/25 04:23:54;;;;;;;17.67;2.15;;;9.00;99.90;;;;;;5011367;28;20069;-63
2022/11/25 04:26:20;;;;;;;13.20;2.00;;;8.90;99.90;;;;;;5019754;28;20048;-63
2022/11/25 04:28:46;;;;;;;17.50;2.63;;;9.10;99.90;;;;;;5021681;28;20112;-63
2022/11/25 04:31:12;;;;;;;15.55;2.35;;;9.00;99.90;;;;;;5010944;28;20079;-63
2022/11/25 04:33:38;;;;;;;14.73;3.03;;;9.00;99.90;;;;;;5017151;28;20018;-63
2022/11/25 04:36:04;;;;;;;19.10;3.92;;;9.10;99.90;;;;;;5013554;28;20026;-63
2022/11/25 04:38:30;;;;;;;23.73;3.15;;;9.20;99.90;;;;;;5014520;28;20021;-63
2022/11/25 04:40:55;;;;;;;20.85;3.10;;;9.10;99.90;;;;;;5007872;28;20363;-64
2022/11/25 04:43:22;;;;;;;18.27;3.13;;;9.10;99.90;;;;;;5027161;23;20053;-68
2022/11/25 04:45:48;;;;;;;16.65;3.00;;;9.10;99.90;;;;;;5009986;28;20041;-66
2022/11/25 04:48:14;;;;;;;19.63;2.50;;;9.20;99.90;;;;;;5013277;28;20033;-68
2022/11/25 04:50:40;;;;;;;15.40;2.40;;;9.10;99.90;;;;;;5015234;28;20100;-66
2022/11/25 04:53:05;;;;;;;17.10;2.50;;;9.00;99.90;;;;;;5020170;28;20459;-67
2022/11/25 04:55:31;;;;;;;14.60;2.17;;;8.90;99.90;;;;;;5012998;28;20073;-67
2022/11/25 04:57:57;;;;;;;14.30;2.17;;;8.80;99.90;;;;;;5024333;28;20021;-66
2022/11/25 05:00:23;;;;;;;23.02;3.03;;;8.80;99.90;;;;;;5011507;28;20029;-67
2022/11/25 05:02:49;;;;;;;18.90;2.78;;;8.80;99.90;;;;;;5014594;28;20385;-67
2022/11/25 05:05:15;;;;;;;17.42;2.33;;;8.80;99.90;;;;;;5014722;28;20176;-67
2022/11/25 05:07:41;;;;;;;20.90;4.22;;;8.70;99.90;;;;;;5017601;28;20481;-67
2022/11/25 05:10:08;;;;;;;16.58;3.08;;;8.80;99.90;;;;;;5017735;28;20037;-67
2022/11/25 05:12:34;;;;;;;22.17;3.10;;;8.70;99.90;;;;;;5011226;28;20049;-67
2022/11/25 05:15:00;;;;;;;18.55;2.60;;;8.70;99.90;;;;;;5013134;28;20128;-67
2022/11/25 05:17:29;;;;;;;19.45;2.90;;;8.80;99.90;;;;;;5011442;28;20441;-67
2022/11/25 05:19:55;;;;;;;15.40;2.80;;;8.80;99.90;;;;;;5020603;28;20119;-67
2022/11/25 05:22:25;;;;;;;18.60;3.60;;;8.90;99.90;;;;;;5014272;28;20385;-67
2022/11/25 05:24:52;;;;;;;14.95;2.05;;;8.90;99.90;;;;;;5028732;28;20120;-67
2022/11/25 05:27:18;;;;;;;16.38;2.30;;;8.80;99.90;;;;;;5018412;28;20463;-67
2022/11/25 05:29:44;;;;;;;14.82;2.50;;;8.80;99.90;;;;;;5018078;28;20460;-67
2022/11/25 05:32:10;;;;;;;14.23;2.30;;;8.80;99.90;;;;;;5014120;28;20044;-67
2022/11/25 05:34:37;;;;;;;14.07;2.58;;;8.80;99.90;;;;;;5013732;28;20029;-67
2022/11/25 05:37:03;;;;;;;10.65;2.88;;;8.80;99.90;;;;;;5010056;28;20030;-67
2022/11/25 05:39:28;;;;;;;20.85;2.13;;;8.80;99.90;;;;;;5017298;28;20032;-68
2022/11/25 05:41:55;;;;;;;16.83;2.88;;;8.80;99.90;;;;;;5014777;28;20029;-67
2022/11/25 05:44:21;;;;;;;16.65;2.83;;;8.70;99.90;;;;;;5010770;28;20358;-67
2022/11/25 05:46:47;;;;;;;11.85;2.58;;;8.70;99.90;;;;;;5012597;28;20120;-67
2022/11/25 05:49:14;;;;;;;23.02;3.05;;;8.70;99.90;;;;;;5016326;28;20075;-67
2022/11/25 05:51:40;;;;;;;22.92;4.68;;;8.70;99.90;;;;;;5016185;28;20037;-67
2022/11/25 05:54:06;;;;;;;18.70;2.13;;;8.70;99.90;;;;;;5015195;28;20026;-67
2022/11/25 05:56:31;;;;;;;15.23;3.08;;;8.70;99.90;;;;;;5021752;28;20026;-67
2022/11/25 05:59:01;;;;;;;20.30;3.20;;;8.70;99.90;;;;;;5009283;28;20489;-67
2022/11/25 06:01:27;;;;;;;18.15;2.63;;;8.90;99.90;;;;;;5010406;28;20029;-67
2022/11/25 06:03:52;;;;;;;16.08;1.92;;;8.90;99.90;;;;;;5018901;28;20022;-66
2022/11/25 06:06:19;;;;;;;11.10;2.38;;;8.90;99.90;;;;;;5020074;28;20086;-67
2022/11/25 06:08:45;;;;;;;16.42;3.13;;;9.00;99.90;;;;;;5010139;28;20030;-67
2022/11/25 06:11:13;;;;;;;12.18;2.45;;;9.00;99.90;;;;;;5010417;28;20037;-67
2022/11/25 06:13:40;;;;;;;16.70;2.28;;;9.10;99.90;;;;;;5011382;28;20022;-67
2022/11/25 06:16:11;;;;;;;17.42;2.70;;;9.10;99.90;;;;;;5008637;28;20032;-67
2022/11/25 06:18:37;;;;;;;21.70;3.63;;;9.00;99.90;;;;;;5010983;28;20022;-66
2022/11/25 06:21:04;;;;;;;19.67;2.85;;;8.90;99.90;;;;;;5019200;28;20026;-66
2022/11/25 06:23:30;;;;;;;17.10;3.58;;;8.80;99.90;;;;;;5012376;28;20032;-67
2022/11/25 06:26:26;;;;;;;20.20;2.55;;;8.80;99.90;;;;;;5012583;28;20037;-68
2022/11/25 06:28:53;;;;;;;13.10;2.40;;;8.80;99.90;;;;;;5006645;28;20064;-66
2022/11/25 06:31:23;;;;;;;15.00;2.50;;;8.80;99.90;;;;;;5007862;28;20026;-67
2022/11/25 06:33:50;;;;;;;20.63;2.95;;;8.70;99.90;;;;;;5007259;28;20029;-67
2022/11/25 06:36:17;;;;;;;19.70;2.78;;;8.70;99.90;;;;;;5008061;28;20030;-67
2022/11/25 06:38:44;;;;;;;17.70;2.95;;;8.70;99.90;;;;;;5011321;28;20092;-67
2022/11/25 06:41:10;;;;;;;19.63;2.08;;;8.70;99.90;;;;;;5009511;28;20371;-66
2022/11/25 06:43:35;;;;;;;9.85;2.30;;;8.70;99.90;;;;;;5010552;28;20548;-67
2022/11/25 06:46:10;;;;;;;14.43;2.42;;;8.70;99.90;;;;;;5016296;28;20378;-67
2022/11/25 06:48:36;;;;;;;13.45;2.85;;;8.80;99.90;;;;;;5009273;28;20080;-67
2022/11/25 06:51:05;;;;;;;13.10;2.53;;;8.70;99.90;;;;;;5007379;28;20022;-66
2022/11/25 06:53:32;;;;;;;19.40;2.75;;;8.80;99.90;;;;;;5004673;28;20120;-66
2022/11/25 06:56:11;;;;;;;11.25;1.92;;;8.70;99.90;;;;;;5011102;28;20029;-67
2022/11/25 06:58:38;;;;;;;15.20;1.88;;;8.70;99.90;;;;;;5006660;28;20030;-67
2022/11/25 07:01:18;;;;;;;17.52;3.17;;;8.70;99.90;;;;;;5014495;28;20034;-67
2022/11/25 07:03:45;;;;;;;13.40;1.88;;;8.60;99.90;;;;;;5010526;28;20060;-67
2022/11/25 07:06:12;;;;;;;15.10;3.40;;;8.60;99.90;;;;;;5009759;28;20038;-67
2022/11/25 07:08:39;;;;;;;13.63;2.55;;;8.70;99.90;;;;;;5011798;28;20018;-67
2022/11/25 07:11:13;;;;;;;15.68;2.35;;;8.70;99.90;;;;;;5007831;28;20057;-66
2022/11/25 07:13:39;;;;;;;11.10;1.48;;;8.60;99.90;;;;;;5005870;28;20034;-66
2022/11/25 07:16:05;;;;;;;10.30;2.10;;;8.70;99.90;;;;;;5008279;28;20030;-66
2022/11/25 07:18:33;;;;;;;17.88;1.63;;;8.70;99.90;;;;;;5009083;28;20030;-66
2022/11/25 07:21:07;;;;;;;9.88;2.22;;;8.70;99.90;;;;;;5006729;28;20025;-66
2022/11/25 07:23:34;;;;;;;12.73;1.63;;;8.70;99.90;;;;;;5015574;28;20059;-66
2022/11/25 07:26:06;;;;;;;12.02;2.75;;;8.70;99.90;;;;;;5008506;28;20033;-67
2022/11/25 07:28:32;;;;;;;10.63;1.60;;;8.80;99.90;;;;;;5009961;28;20022;-67
2022/11/25 07:31:12;;;;;;;10.98;1.70;;;8.70;99.90;;;;;;5011642;28;20034;-67
2022/11/25 07:33:37;;;;;;;17.77;1.83;;;8.70;99.90;;;;;;5011408;28;20487;-67
2022/11/25 07:36:05;;;;;;;13.73;1.55;;;8.70;99.90;;;;;;5010317;28;20034;-69
2022/11/25 07:38:31;;;;;;;12.80;2.45;;;8.80;99.90;;;;;;5010128;28;20084;-67
2022/11/25 07:41:07;;;;;;;8.10;1.90;;;8.80;99.90;;;;;;5010759;28;20026;-67
2022/11/25 07:43:33;;;;;;;16.35;2.28;;;8.80;99.90;;;;;;5007284;28;20046;-67
2022/11/25 07:46:15;;;;;;;17.35;1.90;;;8.80;99.90;;;;;;4996664;28;20042;-67
2022/11/25 07:48:41;;;;;;;10.80;2.50;;;8.80;99.90;;;;;;5005868;28;20026;-65
2022/11/25 07:51:23;;;;;;;9.65;1.50;;;8.80;99.90;;;;;;5006973;28;20057;-66
2022/11/25 07:53:49;;;;;;;10.93;2.57;;;8.70;99.90;;;;;;5011008;28;20115;-66
2022/11/25 07:56:16;;;;;;;12.38;2.03;;;8.80;99.90;;;;;;4997477;28;20030;-67
2022/11/25 07:58:42;;;;;;;5.80;1.70;;;8.70;99.90;;;;;;5003883;28;20449;-66
2022/11/25 08:01:09;;;;;;;7.25;1.52;;;8.80;99.90;;;;;;4996199;28;20037;-66
2022/11/25 08:03:38;;;;;;;14.77;1.60;;;8.90;99.90;;;;;;5008848;28;20037;-67
2022/11/25 08:06:06;;;;;;;10.32;1.25;;;8.80;99.90;;;;;;5006260;28;20129;-67
2022/11/25 08:08:33;;;;;;;8.75;1.50;;;8.80;99.90;;;;;;5005606;28;20073;-67
2022/11/25 08:10:59;;;;;;;7.93;1.75;;;8.80;99.90;;;;;;5028158;28;20096;-67
2022/11/25 08:13:25;;;;;;;11.40;1.65;;;8.70;99.90;;;;;;5011656;28;20434;-67
2022/11/25 08:15:51;;;;;;;14.60;1.88;;;8.70;99.90;;;;;;4999219;28;20029;-67
2022/11/25 08:18:17;;;;;;;11.77;1.58;;;8.60;99.90;;;;;;5008932;28;20038;-67
2022/11/25 08:20:43;;;;;;;10.25;2.72;;;8.60;99.90;;;;;;5011126;28;20034;-67
2022/11/25 08:23:09;;;;;;;11.82;1.83;;;8.60;99.90;;;;;;5016184;28;20393;-67
2022/11/25 08:25:41;;;;;;;14.68;1.63;;;8.60;99.90;;;;;;5009594;28;20132;-67
2022/11/25 08:28:07;;;;;;;;;;;8.70;99.90;;;;;;5003955;28;20034;-67
2022/11/25 08:30:33;;;;;;;8.55;1.00;;;8.70;99.90;;;;;;5007910;28;19956;-67
2022/11/25 08:32:59;;;;;;;6.70;1.20;;;8.80;99.90;;;;;;5004667;28;20419;-67
2022/11/25 08:35:25;;;;;;;10.30;1.42;;;8.70;99.90;;;;;;5015547;28;20156;-67
2022/11/25 08:37:51;;;;;;;12.35;3.85;;;8.70;99.90;;;;;;5006307;28;20478;-67
2022/11/25 08:40:18;;;;;;;8.27;1.70;;;8.70;99.90;;;;;;5006120;28;20141;-67
2022/11/25 08:42:43;;;;;;;11.73;1.65;;;8.80;99.90;;;;;;5007850;28;20042;-67
2022/11/25 08:45:10;;;;;;;14.30;1.85;;;8.70;99.90;;;;;;5009397;28;20099;-66
2022/11/25 08:47:36;;;;;;;10.73;2.25;;;8.80;99.90;;;;;;5007273;28;20061;-68
2022/11/25 08:50:06;;;;;;;9.18;1.98;;;8.80;99.90;;;;;;5013142;28;20064;-67
2022/11/25 08:52:32;;;;;;;13.75;2.38;;;8.70;99.90;;;;;;5009273;28;20030;-67
2022/11/25 08:54:57;;;;;;;10.70;2.20;;;8.70;99.90;;;;;;5010756;28;20025;-67
2022/11/25 08:57:23;;;;;;;9.70;1.08;;;8.80;99.90;;;;;;5015846;28;20501;-66
2022/11/25 08:59:49;;;;;;;9.10;1.38;;;8.80;99.90;;;;;;5014056;28;20402;-67
2022/11/25 09:02:16;;;;;;;4.80;0.90;;;8.90;99.90;;;;;;5014272;28;20037;-66
2022/11/25 09:04:42;;;;;;;11.90;1.77;;;9.00;99.90;;;;;;5012528;28;20037;-67
2022/11/25 09:07:08;;;;;;;7.20;1.70;;;9.00;99.90;;;;;;5016235;28;20048;-66
2022/11/25 09:09:34;;;;;;;13.23;1.55;;;9.00;99.90;;;;;;5014672;28;20065;-67
2022/11/25 09:12:00;;;;;;;14.52;1.73;;;9.00;99.90;;;;;;5006836;28;20049;-66
2022/11/25 09:14:26;;;;;;;16.45;2.30;;;8.90;99.90;;;;;;5013827;28;20025;-66
2022/11/25 09:16:51;;;;;;;20.25;1.98;;;9.00;99.90;;;;;;5011877;28;20021;-66
2022/11/25 09:19:19;;;;;;;6.45;1.27;;;9.00;99.90;;;;;;5014800;28;20032;-66
2022/11/25 09:21:45;;;;;;;9.90;1.15;;;9.10;99.90;;;;;;5010148;28;20026;-67
2022/11/25 09:24:10;;;;;;;19.60;3.25;;;9.20;99.90;;;;;;5016248;28;20033;-67
2022/11/25 09:26:39;;;;;;;9.93;1.40;;;9.20;99.90;;;;;;5011415;28;20146;-68
2022/11/25 09:29:06;;;;;;;10.60;1.92;;;9.20;99.90;;;;;;5010472;28;20041;-66
2022/11/25 09:31:31;;;;;;;7.65;2.50;;;9.30;99.90;;;;;;5009849;28;20045;-65
2022/11/25 09:33:58;;;;;;;13.13;1.90;;;9.30;99.90;;;;;;5015571;28;20541;-66
2022/11/25 09:36:24;;;;;;;12.52;1.33;;;9.40;99.90;;;;;;5010836;28;20033;-67
2022/11/25 09:38:50;;;;;;;6.75;1.50;;;9.50;99.90;;;;;;5012584;28;20034;-66
2022/11/25 09:47:37;;;;;;;9.98;1.20;;;9.60;99.90;;;;;;5007878;28;21008;-66
2022/11/25 09:50:40;;;;;;;9.32;1.50;;;9.60;99.90;;;;;;5014110;28;20037;-67
2022/11/25 09:53:31;;;;;;;10.10;1.17;;;9.60;99.90;;;;;;5016773;28;20025;-66
2022/11/25 09:56:02;;;;;;;13.10;1.95;;;9.60;99.90;;;;;;5006754;28;20026;-66
2022/11/25 09:58:39;;;;;;;6.97;1.10;;;9.70;99.90;;;;;;5013245;28;20506;-66
2022/11/25 10:01:17;;;;;;;12.68;2.50;;;9.90;99.90;;;;;;5017938;28;20115;-67
2022/11/25 10:03:49;;;;;;;8.48;1.40;;;9.90;99.90;;;;;;5009758;28;20080;-66
2022/11/25 10:06:44;;;;;;;10.75;1.80;;;10.00;99.90;;;;;;4991514;28;20122;-66
2022/11/25 10:09:16;;;;;;;10.38;2.17;;;10.00;99.90;;;;;;4997348;28;20060;-68
2022/11/25 10:11:45;;;;;;;8.23;1.08;;;10.00;99.90;;;;;;5010437;28;20033;-68
2022/11/25 10:14:35;;;;;;;11.95;2.05;;;10.10;99.90;;;;;;5011381;28;20433;-67
2022/11/25 10:17:09;;;;;;;9.35;1.67;;;10.10;99.90;;;;;;5011234;28;20040;-66
2022/11/25 10:20:20;;;;;;;13.50;2.92;;;10.20;99.90;;;;;;5009827;28;20117;-67
2022/11/25 10:22:53;;;;;;;10.68;1.13;;;10.20;99.90;;;;;;5006153;28;20034;-69
2022/11/25 10:25:44;;;;;;;14.77;1.17;;;10.20;99.90;;;;;;5000266;28;20655;-68
2022/11/25 10:28:16;;;;;;;12.45;1.63;;;10.30;99.90;;;;;;4995333;28;20112;-66
2022/11/25 10:30:59;;;;;;;5.60;1.52;;;10.30;99.90;;;;;;5005931;28;20370;-66
2022/11/25 10:33:38;;;;;;;9.82;1.38;;;10.30;99.90;;;;;;5005027;28;20042;-76
2022/11/25 10:36:14;;;;;;;13.18;1.45;;;10.40;99.90;;;;;;5003874;28;20559;-71
2022/11/25 10:38:49;;;;;;;5.30;1.63;;;10.40;99.90;;;;;;5007436;28;20029;-67
2022/11/25 10:41:21;;;;;;;11.93;1.55;;;10.50;99.90;;;;;;5003881;28;20100;-68
2022/11/25 10:43:47;;;;;;;13.00;1.65;;;10.50;99.90;;;;;;4995689;28;20042;-67
2022/11/25 10:46:40;;;;;;;10.60;1.48;;;10.50;99.90;;;;;;5003694;28;20125;-68
2022/11/25 10:49:23;;;;;;;16.92;1.58;;;10.60;99.90;;;;;;5006954;28;20026;-67
2022/11/25 10:51:49;;;;;;;9.27;1.50;;;10.60;99.90;;;;;;5009264;28;20079;-66
2022/11/25 10:54:24;;;;;;;9.88;1.65;;;10.60;99.90;;;;;;5002157;28;20414;-67
2022/11/25 10:57:00;;;;;;;10.75;1.98;;;10.70;99.90;;;;;;5017715;28;20034;-66
2022/11/25 10:59:33;;;;;;;5.78;2.45;;;10.80;99.90;;;;;;5001639;28;20026;-65
2022/11/25 11:02:18;;;;;;;8.93;1.70;;;10.90;99.90;;;;;;5007894;28;20030;-66
2022/11/25 11:04:55;;;;;;;7.57;1.40;;;10.90;99.90;;;;;;5007467;28;20137;-66
2022/11/25 11:07:22;;;;;;;6.03;1.38;;;11.00;99.90;;;;;;5009098;28;20033;-66
2022/11/25 11:09:48;;;;;;;7.47;1.55;;;11.20;99.90;;;;;;5005141;28;20022;-66
2022/11/25 11:12:53;;;;;;;7.13;1.50;;;11.80;99.90;;;;;;5010652;28;20018;-66
2022/11/25 11:15:25;;;;;;;6.97;1.65;;;12.20;99.90;;;;;;4990029;28;20046;-67
2022/11/25 11:17:52;;;;;;;6.60;1.02;;;12.40;99.90;;;;;;5007263;28;20474;-65
2022/11/25 11:20:29;;;;;;;9.65;1.52;;;12.80;99.90;;;;;;5010684;28;20069;-64
2022/11/25 11:23:10;;;;;;;7.10;1.27;;;13.30;99.90;;;;;;5007575;28;20026;-64
2022/11/25 11:25:39;;;;;;;8.18;2.00;;;14.00;99.90;;;;;;5014931;28;20037;-64
2022/11/25 11:28:24;;;;;;;8.50;1.85;;;14.30;99.90;;;;;;5010869;28;20052;-64
2022/11/25 11:31:06;;;;;;;7.82;1.55;;;14.30;99.90;;;;;;5011910;28;20501;-65
2022/11/25 11:33:32;;;;;;;13.52;2.10;;;14.50;99.90;;;;;;5001617;28;20042;-64
2022/11/25 11:36:39;;;;;;;7.18;1.50;;;14.50;99.90;;;;;;5014504;28;20030;-64
2022/11/25 11:39:34;;;;;;;10.38;1.98;;;14.70;99.90;;;;;;4988920;28;20486;-64
2022/11/25 11:42:02;;;;;;;13.82;2.15;;;15.00;99.90;;;;;;5008566;28;20021;-64
2022/11/25 11:44:31;;;;;;;8.63;1.52;;;15.20;99.90;;;;;;5010331;28;20081;-64
2022/11/25 11:47:00;;;;;;;10.52;1.67;;;15.40;99.90;;;;;;5013542;28;20482;-65
2022/11/25 11:49:44;;;;;;;12.85;1.90;;;15.60;99.90;;;;;;5004480;28;20029;-65
2022/11/25 11:52:28;;;;;;;10.05;1.50;;;15.60;99.90;;;;;;5007183;28;20032;-65
2022/11/25 11:55:03;;;;;;;8.00;2.08;;;15.30;99.90;;;;;;5001948;28;20018;-65
2022/11/25 11:57:55;;;;;;;10.18;1.67;;;15.40;99.90;;;;;;5008050;28;20034;-66
2022/11/25 12:00:21;;;;;;;;;;;15.60;99.90;;;;;;5005857;28;20037;-64
2022/11/25 12:03:04;;;;;;;8.82;1.58;;;15.30;99.90;;;;;;5001760;28;19937;-65
2022/11/25 12:05:34;;;;;;;7.60;1.17;;;15.30;99.90;;;;;;5011058;28;20050;-64
2022/11/25 12:08:09;;;;;;;5.75;1.45;;;15.40;99.90;;;;;;5009492;28;20056;-64
2022/11/25 12:10:52;;;;;;;10.43;1.95;;;15.70;99.90;;;;;;5007699;28;20029;-65
2022/11/25 12:13:31;;;;;;;10.70;1.13;;;15.70;99.90;;;;;;5000868;28;20478;-65
2022/11/25 12:16:03;;;;;;;7.07;1.40;;;15.80;99.90;;;;;;5005519;28;20045;-65
2022/11/25 12:18:47;;;;;;;9.00;1.10;;;16.00;99.90;;;;;;5013922;28;20021;-65
2022/11/25 12:21:35;;;;;;;7.47;1.98;;;15.70;99.90;;;;;;5007382;28;20046;-65
2022/11/25 12:24:05;;;;;;;3.72;1.23;;;16.10;99.90;;;;;;5006247;28;20049;-63
2022/11/25 12:27:03;;;;;;;8.65;1.52;;;16.40;99.90;;;;;;5005831;28;20053;-65
2022/11/25 12:29:40;;;;;;;7.85;1.52;;;16.30;99.90;;;;;;4999993;28;20032;-65
2022/11/25 12:32:32;;;;;;;5.97;1.42;;;16.10;99.90;;;;;;5016402;28;20036;-65
2022/11/25 12:35:05;;;;;;;10.32;1.80;;;16.10;99.90;;;;;;4990609;28;20038;-64
2022/11/25 12:37:37;;;;;;;9.15;1.88;;;16.40;99.90;;;;;;5011313;28;20029;-64
2022/11/25 12:40:06;;;;;;;;;;;16.80;99.90;;;;;;5019104;28;20068;-64
2022/11/25 12:42:32;;;;;;;7.22;1.48;;;16.60;99.90;;;;;;5006947;28;19924;-65
2022/11/25 12:45:02;;;;;;;6.03;1.00;;;16.80;99.90;;;;;;5009318;28;20405;-64
2022/11/25 12:47:28;;;;;;;8.60;1.23;;;16.60;99.90;;;;;;5006832;28;20052;-65
2022/11/25 12:49:55;;;;;;;5.43;1.20;;;16.40;99.90;;;;;;5013657;28;20489;-65
2022/11/25 12:52:40;;;;;;;4.82;1.00;;;16.60;99.90;;;;;;5011754;28;20464;-65
2022/11/25 12:55:13;;;;;;;6.63;1.30;;;16.60;99.90;;;;;;5011238;28;20029;-65
2022/11/25 12:58:12;;;;;;;13.48;2.13;;;16.60;99.90;;;;;;5014620;28;20034;-65
2022/11/25 13:01:05;;;;;;;6.95;1.60;;;16.70;99.90;;;;;;5002051;28;20474;-65
2022/11/25 13:03:43;;;;;;;7.22;1.30;;;16.90;99.90;;;;;;5010000;28;20034;-65
2022/11/25 13:06:29;;;;;;;4.93;1.50;;;17.30;99.90;;;;;;5009098;28;20054;-65
2022/11/25 13:09:32;;;;;;;5.32;1.23;;;17.30;99.90;;;;;;5008322;28;20341;-65
2022/11/25 13:12:42;;;;;;;5.93;1.58;;;17.40;99.40;;;;;;5002598;28;20091;-65
2022/11/25 13:15:14;;;;;;;8.18;1.30;;;17.00;99.90;;;;;;4945378;28;20146;-65